createdAt,value
2023-01-15T00:16:16.677Z,1.10
2023-01-15T00:18:45.556Z,0.50
2023-01-15T00:21:14.585Z,0.30
2023-01-15T00:24:00.525Z,2.17
2023-01-15T00:26:48.954Z,0.90
2023-01-15T00:29:17.624Z,0.93
2023-01-15T00:31:54.929Z,0.83
2023-01-15T00:34:23.306Z,0.50
2023-01-15T00:36:52.358Z,1.83
2023-01-15T00:39:20.514Z,1.73
2023-01-15T00:41:49.310Z,2.47
2023-01-15T00:44:20.356Z,2.23
2023-01-15T00:46:52.952Z,1.40
2023-01-15T00:49:21.343Z,1.83
2023-01-15T00:51:58.813Z,2.67
2023-01-15T00:54:27.180Z,0.77
2023-01-15T00:57:00.212Z,2.73
2023-01-15T00:59:30.033Z,1.30
2023-01-15T01:02:00.875Z,1.00
2023-01-15T01:04:31.244Z,2.53
2023-01-15T01:07:00.059Z,1.20
2023-01-15T01:09:28.528Z,1.80
2023-01-15T01:11:56.790Z,0.60
2023-01-15T01:14:25.600Z,0.47
2023-01-15T01:16:56.271Z,2.13
2023-01-15T01:19:28.427Z,1.67
2023-01-15T01:21:58.106Z,1.40
2023-01-15T01:24:26.951Z,2.83
2023-01-15T01:26:56.603Z,2.53
2023-01-15T01:29:26.224Z,1.07
2023-01-15T01:31:55.023Z,1.40
2023-01-15T01:34:23.394Z,0.63
2023-01-15T01:36:53.462Z,1.13
2023-01-15T01:39:21.903Z,0.50
2023-01-15T01:41:50.355Z,0.80
2023-01-15T01:44:56.206Z,0.57
2023-01-15T01:47:28.215Z,0.60
2023-01-15T01:50:06.044Z,1.07
2023-01-15T01:52:46.287Z,1.63
2023-01-15T01:55:21.269Z,0.40
2023-01-15T01:57:56.141Z,1.60
2023-01-15T02:00:25.723Z,0.57
2023-01-15T02:02:56.207Z,0.30
2023-01-15T02:05:31.401Z,1.00
2023-01-15T02:08:02.845Z,0.83
2023-01-15T02:10:33.689Z,1.53
2023-01-15T02:13:08.752Z,0.33
2023-01-15T02:15:42.498Z,0.83
2023-01-15T02:18:18.463Z,0.50
2023-01-15T02:20:52.000Z,0.50
2023-01-15T02:23:40.244Z,0.20
2023-01-15T02:26:32.055Z,0.20
2023-01-15T02:29:04.367Z,0.77
2023-01-15T02:31:40.676Z,0.20
2023-01-15T02:34:18.665Z,0.17
2023-01-15T02:36:52.304Z,0.20
2023-01-15T02:39:24.661Z,0.53
2023-01-15T02:42:02.721Z,0.50
2023-01-15T02:44:43.446Z,0.50
2023-01-15T02:47:13.297Z,0.20
2023-01-15T02:49:44.009Z,0.23
2023-01-15T02:52:29.089Z,0.20
2023-01-15T02:55:01.483Z,0.23
2023-01-15T02:57:34.963Z,0.30
2023-01-15T03:00:08.870Z,0.47
2023-01-15T03:02:43.785Z,0.20
2023-01-15T03:05:19.629Z,0.20
2023-01-15T03:07:51.501Z,0.20
2023-01-15T03:10:21.229Z,0.20
2023-01-15T03:13:07.379Z,0.23
2023-01-15T03:16:11.851Z,0.40
2023-01-15T03:18:47.286Z,0.93
2023-01-15T03:21:23.382Z,0.37
2023-01-15T03:23:56.215Z,0.30
2023-01-15T03:26:24.633Z,0.50
2023-01-15T03:28:53.823Z,0.40
2023-01-15T03:31:26.044Z,1.20
2023-01-15T03:33:55.792Z,0.90
2023-01-15T03:36:24.765Z,0.10
2023-01-15T03:38:53.841Z,0.40
2023-01-15T03:41:28.021Z,0.60
2023-01-15T03:44:09.817Z,0.40
2023-01-15T03:46:53.240Z,0.77
2023-01-15T03:49:28.827Z,0.40
2023-01-15T03:52:05.580Z,0.77
2023-01-15T03:54:46.084Z,0.90
2023-01-15T03:57:20.401Z,0.83
2023-01-15T03:59:55.728Z,1.07
2023-01-15T04:02:32.133Z,0.70
2023-01-15T04:05:03.190Z,0.73
2023-01-15T04:07:33.358Z,1.10
2023-01-15T04:10:01.910Z,0.43
2023-01-15T04:12:30.632Z,1.93
2023-01-15T04:14:59.998Z,0.50
2023-01-15T04:17:34.209Z,0.30
2023-01-15T04:20:03.689Z,2.40
2023-01-15T04:22:32.741Z,0.63
2023-01-15T04:25:01.531Z,1.27
2023-01-15T04:27:30.570Z,3.47
2023-01-15T04:30:00.438Z,0.27
2023-01-15T04:32:30.436Z,0.80
2023-01-15T04:34:59.059Z,1.60
2023-01-15T04:37:27.546Z,0.63
2023-01-15T04:39:58.512Z,0.77
2023-01-15T04:42:49.610Z,1.03
2023-01-15T04:45:19.179Z,1.10
2023-01-15T04:47:49.854Z,0.50
2023-01-15T04:50:19.657Z,0.93
2023-01-15T04:52:48.543Z,1.47
2023-01-15T04:55:18.791Z,0.70
2023-01-15T04:57:47.828Z,0.47
2023-01-15T05:00:21.039Z,0.73
2023-01-15T05:02:55.639Z,0.53
2023-01-15T05:05:25.428Z,1.53
2023-01-15T05:07:54.107Z,0.20
2023-01-15T05:10:22.771Z,0.87
2023-01-15T05:12:51.789Z,0.93
2023-01-15T05:15:20.457Z,2.00
2023-01-15T05:17:52.971Z,1.40
2023-01-15T05:20:21.608Z,1.37
2023-01-15T05:22:51.211Z,1.60
2023-01-15T05:25:19.870Z,2.60
2023-01-15T05:27:51.004Z,0.50
2023-01-15T05:30:20.441Z,1.60
2023-01-15T05:32:48.803Z,1.03
2023-01-15T05:35:20.855Z,1.00
2023-01-15T05:37:50.739Z,2.23
2023-01-15T05:40:19.529Z,1.40
2023-01-15T05:42:48.214Z,1.37
2023-01-15T05:45:18.369Z,1.27
2023-01-15T05:47:47.410Z,0.57
2023-01-15T05:50:15.914Z,3.10
2023-01-15T05:52:46.315Z,1.70
2023-01-15T05:55:15.486Z,2.47
2023-01-15T05:57:43.957Z,0.73
2023-01-15T06:00:16.902Z,2.90
2023-01-15T06:02:50.628Z,0.97
2023-01-15T06:05:20.930Z,0.77
2023-01-15T06:07:54.483Z,0.20
2023-01-15T06:10:26.269Z,0.40
2023-01-15T06:12:54.648Z,0.40
2023-01-15T06:15:23.495Z,1.03
2023-01-15T06:17:55.659Z,0.63
2023-01-15T06:20:24.152Z,0.53
2023-01-15T06:22:54.167Z,0.20
2023-01-15T06:25:24.178Z,0.93
2023-01-15T06:27:53.017Z,0.80
2023-01-15T06:30:23.562Z,0.67
2023-01-15T06:32:52.104Z,2.13
2023-01-15T06:35:21.190Z,1.13
2023-01-15T06:37:52.512Z,1.77
2023-01-15T06:40:30.158Z,2.53
2023-01-15T06:43:18.071Z,1.30
2023-01-15T06:46:04.818Z,0.63
2023-01-15T06:48:35.018Z,1.00
2023-01-15T06:51:05.257Z,1.20
2023-01-15T06:53:33.914Z,0.70
2023-01-15T06:56:05.292Z,0.87
2023-01-15T06:58:37.095Z,0.60
2023-01-15T07:01:11.113Z,2.57
2023-01-15T07:03:39.998Z,2.27
2023-01-15T07:06:12.235Z,2.57
2023-01-15T07:08:41.549Z,2.83
2023-01-15T07:11:14.614Z,0.87
2023-01-15T07:13:46.723Z,1.40
2023-01-15T07:16:29.149Z,1.43
2023-01-15T07:18:58.090Z,1.53
2023-01-15T07:21:26.595Z,2.30
2023-01-15T07:23:56.722Z,1.57
2023-01-15T07:26:26.698Z,2.00
2023-01-15T07:28:55.282Z,2.60
2023-01-15T07:31:23.765Z,1.47
2023-01-15T07:33:51.990Z,1.23
2023-01-15T07:36:22.876Z,0.73
2023-01-15T07:38:52.039Z,1.07
2023-01-15T07:41:38.024Z,1.33
2023-01-15T07:44:24.607Z,1.30
2023-01-15T07:47:10.163Z,0.73
2023-01-15T07:49:48.447Z,3.33
2023-01-15T07:52:19.330Z,1.83
2023-01-15T07:54:51.879Z,1.13
2023-01-15T07:57:23.760Z,1.40
2023-01-15T07:59:54.699Z,4.30
2023-01-15T08:02:23.298Z,2.43
2023-01-15T08:04:52.208Z,2.23
2023-01-15T08:07:20.944Z,0.97
2023-01-15T08:09:49.262Z,2.73
2023-01-15T08:12:34.520Z,0.83
2023-01-15T08:15:17.233Z,1.10
2023-01-15T08:17:50.161Z,1.47
2023-01-15T08:20:20.755Z,0.33
2023-01-15T08:22:49.784Z,0.57
2023-01-15T08:25:20.366Z,0.40
2023-01-15T08:27:52.240Z,0.73
2023-01-15T08:30:27.394Z,0.60
2023-01-15T08:33:03.458Z,1.77
2023-01-15T08:35:34.472Z,1.03
2023-01-15T08:38:06.457Z,0.77
2023-01-15T08:40:36.588Z,0.30
2023-01-15T08:43:05.881Z,0.57
2023-01-15T08:45:37.409Z,0.40
2023-01-15T08:48:07.395Z,0.50
2023-01-15T08:50:37.117Z,0.40
2023-01-15T08:53:05.587Z,0.53
2023-01-15T08:55:34.139Z,0.40
2023-01-15T08:58:02.649Z,0.47
2023-01-15T09:00:31.488Z,0.50
2023-01-15T09:03:01.418Z,0.40
2023-01-15T09:05:31.046Z,0.63
2023-01-15T09:08:01.172Z,1.17
2023-01-15T09:10:30.304Z,0.40
2023-01-15T09:13:00.691Z,0.50
2023-01-15T09:15:29.100Z,0.93
2023-01-15T09:17:57.959Z,0.90
2023-01-15T09:20:28.068Z,0.87
2023-01-15T09:22:56.637Z,1.00
2023-01-15T09:25:25.435Z,13.27
2023-01-15T09:27:57.595Z,1.07
2023-01-15T09:30:26.119Z,3.40
2023-01-15T09:32:56.600Z,0.93
2023-01-15T09:35:25.092Z,5.27
2023-01-15T09:37:56.716Z,15.37
2023-01-15T09:40:42.609Z,1.27
2023-01-15T09:43:25.890Z,2.03
2023-01-15T09:46:02.324Z,1.57
2023-01-15T09:48:45.231Z,0.50
2023-01-15T09:51:21.235Z,5.53
2023-01-15T09:54:05.520Z,2.50
2023-01-15T09:56:38.361Z,4.73
2023-01-15T09:59:15.148Z,0.60
2023-01-15T10:01:45.493Z,0.90
2023-01-15T10:04:33.854Z,1.37
2023-01-15T10:07:15.374Z,1.33
2023-01-15T10:09:46.733Z,1.70
2023-01-15T10:12:36.859Z,1.90
2023-01-15T10:15:16.551Z,1.90
2023-01-15T10:17:48.514Z,2.23
2023-01-15T10:20:25.992Z,2.53
2023-01-15T10:23:20.251Z,3.57
2023-01-15T10:25:52.241Z,1.10
2023-01-15T10:28:25.341Z,3.57
2023-01-15T10:30:57.025Z,5.07
2023-01-15T10:33:54.901Z,2.00
2023-01-15T10:36:30.519Z,3.30
2023-01-15T10:39:05.648Z,1.33
2023-01-15T10:41:54.136Z,1.43
2023-01-15T10:44:31.658Z,1.10
2023-01-15T10:47:22.420Z,1.70
2023-01-15T10:49:52.276Z,2.03
2023-01-15T10:52:32.413Z,9.20
2023-01-15T10:55:09.855Z,11.00
2023-01-15T10:57:56.502Z,3.63
2023-01-15T11:00:30.376Z,4.40
2023-01-15T11:03:05.062Z,1.77
2023-01-15T11:05:35.307Z,2.33
2023-01-15T11:08:45.153Z,2.10
2023-01-15T11:10:58.569Z,2.07
2023-01-15T11:13:46.331Z,0.90
2023-01-15T11:16:40.073Z,3.03
2023-01-15T11:19:41.283Z,1.77
2023-01-15T11:22:16.248Z,1.30
2023-01-15T11:24:51.842Z,1.83
2023-01-15T11:27:23.076Z,1.87
2023-01-15T11:29:57.590Z,2.63
2023-01-15T11:32:31.205Z,3.57
2023-01-15T11:35:01.080Z,2.50
2023-01-15T11:37:30.711Z,4.20
2023-01-15T11:40:06.350Z,3.43
2023-01-15T11:42:52.145Z,3.13
2023-01-15T11:45:41.283Z,6.27
2023-01-15T11:48:35.480Z,3.73
2023-01-15T11:51:08.417Z,4.40
2023-01-15T11:53:43.091Z,2.63
2023-01-15T11:56:17.077Z,4.27
2023-01-15T11:58:50.107Z,2.73
2023-01-15T12:01:28.499Z,2.20
2023-01-15T12:03:59.132Z,10.90
2023-01-15T12:06:32.393Z,11.13
2023-01-15T12:09:07.555Z,8.47
2023-01-15T12:12:01.414Z,2.60
2023-01-15T12:14:53.150Z,1.67
2023-01-15T12:17:44.289Z,3.77
2023-01-15T12:20:26.347Z,1.97
2023-01-15T12:23:31.511Z,2.97
2023-01-15T12:26:05.924Z,3.77
2023-01-15T12:28:39.453Z,1.93
2023-01-15T12:31:13.277Z,2.80
2023-01-15T12:33:50.451Z,3.37
2023-01-15T12:36:23.997Z,6.00
2023-01-15T12:38:57.307Z,2.00
2023-01-15T12:41:53.113Z,5.10
2023-01-15T12:44:45.922Z,2.27
2023-01-15T12:47:21.652Z,4.83
2023-01-15T12:50:01.995Z,3.47
2023-01-15T12:52:38.383Z,4.23
2023-01-15T12:55:14.980Z,4.53
2023-01-15T12:57:52.203Z,4.60
2023-01-15T13:00:30.973Z,2.67
2023-01-15T13:03:12.085Z,4.67
2023-01-15T13:05:53.082Z,6.20
2023-01-15T13:08:27.053Z,4.00
2023-01-15T13:10:55.520Z,1.83
2023-01-15T13:13:26.321Z,2.17
2023-01-15T13:16:06.275Z,3.60
2023-01-15T13:18:47.632Z,2.40
2023-01-15T13:21:20.508Z,7.13
2023-01-15T13:24:18.796Z,3.43
2023-01-15T13:26:59.897Z,2.17
2023-01-15T13:29:41.931Z,3.53
2023-01-15T13:32:18.637Z,1.90
2023-01-15T13:34:50.713Z,4.17
2023-01-15T13:37:27.404Z,2.37
2023-01-15T13:40:01.912Z,2.03
2023-01-15T13:42:34.525Z,4.33
2023-01-15T13:45:12.449Z,0.80
2023-01-15T13:47:46.077Z,3.67
2023-01-15T13:50:22.114Z,2.87
2023-01-15T13:53:11.367Z,2.50
2023-01-15T13:55:50.233Z,2.70
2023-01-15T13:58:21.974Z,2.63
2023-01-15T14:00:50.433Z,3.50
2023-01-15T14:03:28.323Z,2.43
2023-01-15T14:05:59.002Z,1.90
2023-01-15T14:08:43.834Z,1.83
2023-01-15T14:11:37.433Z,1.77
2023-01-15T14:15:05.036Z,2.30
2023-01-15T14:18:05.200Z,1.83
2023-01-15T14:20:51.485Z,3.80
2023-01-15T14:23:56.960Z,3.60
2023-01-15T14:26:33.184Z,1.83
2023-01-15T14:29:16.636Z,3.43
2023-01-15T14:32:01.898Z,4.17
2023-01-15T14:34:33.334Z,3.23
2023-01-15T14:37:07.943Z,3.53
2023-01-15T14:39:49.973Z,3.37
2023-01-15T14:42:43.547Z,2.93
2023-01-15T14:45:21.494Z,5.43
2023-01-15T14:48:20.939Z,3.20
2023-01-15T14:50:59.049Z,2.30
2023-01-15T14:53:38.882Z,3.20
2023-01-15T14:59:20.165Z,4.03
2023-01-15T15:01:56.501Z,6.10
2023-01-15T15:04:35.221Z,4.47
2023-01-15T15:07:13.099Z,3.73
2023-01-15T15:09:45.155Z,2.93
2023-01-15T15:12:27.217Z,5.10
2023-01-15T15:15:03.171Z,5.73
2023-01-15T15:17:42.833Z,2.53
2023-01-15T15:20:39.757Z,5.43
2023-01-15T15:23:14.847Z,2.77
2023-01-15T15:25:44.020Z,4.23
2023-01-15T15:28:18.210Z,4.60
2023-01-15T15:30:49.776Z,4.63
2023-01-15T15:33:23.428Z,5.07
2023-01-15T15:35:55.898Z,5.83
2023-01-15T15:38:26.738Z,4.43
2023-01-15T15:41:00.554Z,5.97
2023-01-15T15:44:03.004Z,4.67
2023-01-15T15:46:51.966Z,5.03
2023-01-15T15:49:21.675Z,2.20
2023-01-15T15:51:51.532Z,2.60
2023-01-15T15:54:21.836Z,2.67
2023-01-15T15:56:55.509Z,1.90
2023-01-15T15:59:45.160Z,4.93
2023-01-15T16:02:23.262Z,6.13
2023-01-15T16:04:54.509Z,2.17
2023-01-15T16:07:28.478Z,4.17
2023-01-15T16:10:02.732Z,2.23
2023-01-15T16:12:35.659Z,3.27
2023-01-15T16:15:07.357Z,4.63
2023-01-15T16:17:47.806Z,5.17
2023-01-15T16:20:21.860Z,3.30
2023-01-15T16:22:56.298Z,4.27
2023-01-15T16:25:31.075Z,3.30
2023-01-15T16:28:02.270Z,3.30
2023-01-15T16:30:36.011Z,5.37
2023-01-15T16:33:09.151Z,4.70
2023-01-15T16:35:42.065Z,2.83
2023-01-15T16:38:22.389Z,2.43
2023-01-15T16:40:51.068Z,2.37
2023-01-15T16:43:25.114Z,3.67
2023-01-15T16:46:04.949Z,2.37
2023-01-15T16:48:38.610Z,3.93
2023-01-15T16:51:45.333Z,3.33
2023-01-15T16:55:01.396Z,5.80
2023-01-15T16:57:32.532Z,3.07
2023-01-15T17:00:07.884Z,4.00
2023-01-15T17:05:28.753Z,2.50
2023-01-15T17:07:58.071Z,3.80
2023-01-15T17:10:31.965Z,2.13
2023-01-15T17:13:01.522Z,2.33
2023-01-15T17:15:41.685Z,3.00
2023-01-15T17:18:47.616Z,4.10
2023-01-15T17:21:18.722Z,2.50
2023-01-15T17:23:48.256Z,1.87
2023-01-15T17:26:20.698Z,4.17
2023-01-15T17:28:50.775Z,3.23
2023-01-15T17:31:25.927Z,4.40
2023-01-15T17:33:56.409Z,3.90
2023-01-15T17:36:25.134Z,2.67
2023-01-15T17:38:54.028Z,5.27
2023-01-15T17:41:23.989Z,3.60
2023-01-15T17:43:52.570Z,2.73
2023-01-15T17:46:22.387Z,2.27
2023-01-15T17:48:52.646Z,2.30
2023-01-15T17:51:26.471Z,3.37
2023-01-15T17:53:56.496Z,4.60
2023-01-15T17:56:45.723Z,3.63
2023-01-15T17:59:31.713Z,4.63
2023-01-15T18:02:17.466Z,2.80
2023-01-15T18:05:10.842Z,3.97
2023-01-15T18:07:44.195Z,5.90
2023-01-15T18:10:19.160Z,4.23
2023-01-15T18:12:47.868Z,3.13
2023-01-15T18:15:19.732Z,3.60
2023-01-15T18:17:51.541Z,6.27
2023-01-15T18:20:19.886Z,4.00
2023-01-15T18:22:49.808Z,3.13
2023-01-15T18:25:18.610Z,3.50
2023-01-15T18:27:48.047Z,2.07
2023-01-15T18:30:17.952Z,2.30
2023-01-15T18:32:46.701Z,4.97
2023-01-15T18:35:15.290Z,5.57
2023-01-15T18:37:43.883Z,6.43
2023-01-15T18:40:15.834Z,4.37
2023-01-15T18:43:01.631Z,6.47
2023-01-15T18:45:48.853Z,3.43
2023-01-15T18:48:18.278Z,5.37
2023-01-15T18:50:48.874Z,4.47
2023-01-15T18:53:20.736Z,4.20
2023-01-15T18:55:51.008Z,6.67
2023-01-15T18:58:19.840Z,4.60
2023-01-15T19:00:49.325Z,5.90
2023-01-15T19:03:18.136Z,3.50
2023-01-15T19:05:46.229Z,4.00
2023-01-15T19:08:15.856Z,4.83
2023-01-15T19:10:44.450Z,2.03
2023-01-15T19:13:18.621Z,4.80
2023-01-15T19:16:04.578Z,8.27
2023-01-15T19:18:53.515Z,6.97
2023-01-15T19:21:29.788Z,8.87
2023-01-15T19:23:59.103Z,9.90
2023-01-15T19:26:34.379Z,12.03
2023-01-15T19:29:06.555Z,7.20
2023-01-15T19:31:39.352Z,4.30
2023-01-15T19:34:32.771Z,6.27
2023-01-15T19:37:01.050Z,4.00
2023-01-15T19:39:30.080Z,5.37
2023-01-15T19:42:16.327Z,3.07
2023-01-15T19:45:03.934Z,2.87
2023-01-15T19:47:54.227Z,7.03
2023-01-15T19:50:26.828Z,3.87
2023-01-15T19:52:56.300Z,5.10
2023-01-15T19:55:26.493Z,9.27
2023-01-15T19:58:02.541Z,8.27
2023-01-15T20:00:36.777Z,9.43
2023-01-15T20:03:06.252Z,3.63
2023-01-15T20:05:35.123Z,5.33
2023-01-15T20:08:09.936Z,5.00
2023-01-15T20:10:39.791Z,3.30
2023-01-15T20:13:28.921Z,5.37
2023-01-15T20:16:01.661Z,5.43
2023-01-15T20:18:38.739Z,5.73
2023-01-15T20:21:09.065Z,2.93
2023-01-15T20:23:37.730Z,4.40
2023-01-15T20:26:14.907Z,4.50
2023-01-15T20:28:46.119Z,4.07
2023-01-15T20:31:20.577Z,5.10
2023-01-15T20:33:53.275Z,4.07
2023-01-15T20:36:21.712Z,3.47
2023-01-15T20:38:50.285Z,4.00
2023-01-15T20:41:35.855Z,3.77
2023-01-15T20:44:21.404Z,2.03
2023-01-15T20:46:51.739Z,5.37
2023-01-15T20:49:25.295Z,4.20
2023-01-15T20:51:54.781Z,2.30
2023-01-15T20:54:26.636Z,5.20
2023-01-15T20:56:55.074Z,4.00
2023-01-15T20:59:23.823Z,4.50
2023-01-15T21:02:08.920Z,5.30
2023-01-15T21:04:37.122Z,3.63
2023-01-15T21:07:09.983Z,5.77
2023-01-15T21:09:43.010Z,3.40
2023-01-15T21:12:11.317Z,5.00
2023-01-15T21:14:40.008Z,3.60
2023-01-15T21:17:11.753Z,3.37
2023-01-15T21:19:40.330Z,6.70
2023-01-15T21:22:08.673Z,4.43
2023-01-15T21:24:37.135Z,5.90
2023-01-15T21:27:05.362Z,6.60
2023-01-15T21:29:33.705Z,5.40
2023-01-15T21:32:02.510Z,3.07
2023-01-15T21:34:32.743Z,1.93
2023-01-15T21:37:01.265Z,4.77
2023-01-15T21:39:31.441Z,3.40
2023-01-15T21:42:17.265Z,4.17
2023-01-15T21:44:46.104Z,2.07
2023-01-15T21:47:16.544Z,2.57
2023-01-15T21:49:47.282Z,4.43
2023-01-15T21:52:17.383Z,4.27
2023-01-15T21:54:53.845Z,4.60
2023-01-15T21:57:22.634Z,4.10
2023-01-15T21:59:51.390Z,3.83
2023-01-15T22:02:22.092Z,4.50
2023-01-15T22:04:52.289Z,4.37
2023-01-15T22:07:20.763Z,5.63
2023-01-15T22:09:49.164Z,5.87
2023-01-15T22:12:20.624Z,5.93
2023-01-15T22:14:53.460Z,5.53
2023-01-15T22:17:24.338Z,3.00
2023-01-15T22:19:54.462Z,2.50
2023-01-15T22:22:23.230Z,3.33
2023-01-15T22:24:52.515Z,4.27
2023-01-15T22:27:23.520Z,3.80
2023-01-15T22:29:51.878Z,4.67
2023-01-15T22:32:22.116Z,4.73
2023-01-15T22:34:51.310Z,3.37
2023-01-15T22:37:21.097Z,4.97
2023-01-15T22:39:50.303Z,2.10
2023-01-15T22:42:31.337Z,4.37
2023-01-15T22:45:00.985Z,2.60
2023-01-15T22:47:30.215Z,3.90
2023-01-15T22:49:58.592Z,7.23
2023-01-15T22:52:28.578Z,5.13
2023-01-15T22:54:57.274Z,2.33
2023-01-15T22:57:25.735Z,3.83
2023-01-15T23:07:01.943Z,2.70
2023-01-15T23:19:10.066Z,5.67
2023-01-15T23:21:40.936Z,3.37
2023-01-15T23:24:10.125Z,4.67
2023-01-15T23:26:40.580Z,6.20
2023-01-15T23:29:09.408Z,7.33
2023-01-15T23:31:37.801Z,5.67
2023-01-15T23:34:05.925Z,3.53
2023-01-15T23:36:34.850Z,5.30
2023-01-15T23:47:41.582Z,3.50
2023-01-15T23:50:13.042Z,3.03
2023-01-15T23:52:46.815Z,8.03
2023-01-15T23:55:14.990Z,6.33
2023-01-15T23:57:43.943Z,5.90
